Time;durP1;ratioP1;P1;durP2;ratioP2;P2;SDS_P1;SDS_P2;PMS_P1;PMS_P2;Temp;Humidity;BMP_temperature;BMP_pressure;BME280_temperature;BME280_humidity;BME280_pressure;Samples;Min_cycle;Max_cycle;Signal;HPM_P1;HPM_P2
2023/02/12 00:02:19;;;;;;;10.07;8.02;;;8.20;99.90;;;;;;5108675;27;20031;-73
2023/02/12 00:04:46;;;;;;;13.85;9.38;;;8.20;99.90;;;;;;5108252;27;20032;-73
2023/02/12 00:07:13;;;;;;;11.95;8.80;;;8.20;99.90;;;;;;5094566;27;20326;-73
2023/02/12 00:09:39;;;;;;;9.40;7.15;;;8.20;99.90;;;;;;5084126;27;20049;-73
2023/02/12 00:12:05;;;;;;;12.65;8.45;;;8.10;99.90;;;;;;5094856;27;20034;-73
2023/02/12 00:14:33;;;;;;;11.27;8.45;;;8.20;99.90;;;;;;5065362;27;20036;-76
2023/02/12 00:16:59;;;;;;;11.65;6.53;;;8.10;99.90;;;;;;5098133;27;20433;-73
2023/02/12 00:19:26;;;;;;;9.82;7.00;;;8.10;99.90;;;;;;5083390;27;20039;-73
2023/02/12 00:21:52;;;;;;;10.98;7.63;;;8.00;99.90;;;;;;5093611;27;20019;-73
2023/02/12 00:24:18;;;;;;;11.63;7.20;;;7.90;99.90;;;;;;5097123;27;20031;-75
2023/02/12 00:26:46;;;;;;;11.65;8.40;;;7.80;99.90;;;;;;5081650;27;20047;-73
2023/02/12 00:29:13;;;;;;;12.18;8.10;;;7.70;99.90;;;;;;5098069;27;20043;-73
2023/02/12 00:31:39;;;;;;;11.70;7.32;;;7.60;99.90;;;;;;5093828;27;20035;-74
2023/02/12 00:34:06;;;;;;;10.55;7.43;;;7.40;99.90;;;;;;5096298;27;20050;-75
2023/02/12 00:36:32;;;;;;;9.20;7.43;;;7.30;99.90;;;;;;5112708;27;20069;-73
2023/02/12 00:38:59;;;;;;;12.40;8.02;;;7.30;99.90;;;;;;5076498;27;20043;-74
2023/02/12 00:41:25;;;;;;;10.80;8.07;;;7.20;99.90;;;;;;5051682;28;20487;-74
2023/02/12 00:43:52;;;;;;;10.52;7.72;;;7.10;99.90;;;;;;5089317;27;20043;-73
2023/02/12 00:46:18;;;;;;;10.80;7.72;;;7.00;99.90;;;;;;5094572;27;20583;-73
2023/02/12 00:48:45;;;;;;;13.35;8.60;;;7.00;99.90;;;;;;5092523;28;20426;-73
2023/02/12 00:51:11;;;;;;;12.13;8.05;;;6.90;99.90;;;;;;5069997;28;20028;-75
2023/02/12 00:53:37;;;;;;;10.35;8.25;;;6.90;99.90;;;;;;5093546;28;20371;-74
2023/02/12 00:56:04;;;;;;;10.60;7.28;;;6.80;99.90;;;;;;5090270;27;20039;-73
2023/02/12 00:58:30;;;;;;;11.85;7.45;;;6.80;99.90;;;;;;5073023;27;20031;-74
2023/02/12 01:00:56;;;;;;;10.68;7.95;;;6.80;99.90;;;;;;5082420;27;20043;-73
2023/02/12 01:03:24;;;;;;;10.07;8.20;;;6.80;99.90;;;;;;5073400;28;20039;-73
2023/02/12 01:05:52;;;;;;;11.25;9.07;;;6.80;99.90;;;;;;5073706;27;20036;-73
2023/02/12 01:08:19;;;;;;;9.90;7.55;;;6.80;99.90;;;;;;5070949;27;20035;-73
2023/02/12 01:10:55;;;;;;;12.10;8.05;;;6.80;99.90;;;;;;5084138;27;20485;-74
2023/02/12 01:13:22;;;;;;;11.10;8.75;;;6.80;99.90;;;;;;5089518;27;20105;-73
2023/02/12 01:15:49;;;;;;;12.23;8.63;;;6.70;99.90;;;;;;5090177;28;20398;-74
2023/02/12 01:18:17;;;;;;;11.52;9.23;;;6.70;99.90;;;;;;5075113;27;20035;-73
2023/02/12 01:20:43;;;;;;;14.57;9.85;;;6.70;99.90;;;;;;5083396;27;20032;-73
2023/02/12 01:23:09;;;;;;;11.77;8.60;;;6.70;99.90;;;;;;5089221;28;20035;-74
2023/02/12 01:25:37;;;;;;;14.70;9.63;;;6.70;99.90;;;;;;5108747;27;20109;-73
2023/02/12 01:28:04;;;;;;;13.02;9.40;;;6.60;99.90;;;;;;5089873;28;20039;-74
2023/02/12 01:30:30;;;;;;;13.65;9.57;;;6.60;99.90;;;;;;5064714;28;20031;-73
2023/02/12 01:32:57;;;;;;;11.50;8.45;;;6.60;99.90;;;;;;5087272;28;20039;-74
2023/02/12 01:35:23;;;;;;;12.02;9.52;;;6.50;99.90;;;;;;5092030;28;20035;-73
2023/02/12 01:37:49;;;;;;;13.57;9.93;;;6.60;99.90;;;;;;5107800;27;20050;-76
2023/02/12 01:40:17;;;;;;;11.65;8.02;;;6.50;99.90;;;;;;5082267;28;20035;-74
2023/02/12 01:42:45;;;;;;;13.05;9.05;;;6.60;99.90;;;;;;5091852;27;20043;-73
2023/02/12 01:45:11;;;;;;;13.35;9.00;;;6.60;99.90;;;;;;5089628;28;20058;-73
2023/02/12 01:47:41;;;;;;;14.02;9.88;;;6.60;99.90;;;;;;5089261;28;20067;-73
2023/02/12 01:50:12;;;;;;;13.93;10.07;;;6.60;99.90;;;;;;5081073;28;20035;-73
2023/02/12 01:52:42;;;;;;;13.23;9.60;;;6.60;99.90;;;;;;5089185;28;20042;-73
2023/02/12 01:55:10;;;;;;;12.80;9.35;;;6.60;99.90;;;;;;5075253;28;20047;-73
2023/02/12 01:57:41;;;;;;;14.73;10.05;;;6.60;99.90;;;;;;5072936;28;20039;-73
2023/02/12 02:00:13;;;;;;;13.50;9.50;;;6.60;99.90;;;;;;5084892;28;20229;-74
2023/02/12 02:02:44;;;;;;;12.63;9.20;;;6.60;99.90;;;;;;5108945;28;20027;-73
2023/02/12 02:05:16;;;;;;;13.60;9.23;;;6.60;99.90;;;;;;5093359;28;20102;-73
2023/02/12 02:07:44;;;;;;;15.63;10.52;;;6.50;99.90;;;;;;5098739;28;20246;-73
2023/02/12 02:10:10;;;;;;;16.80;11.02;;;6.50;99.90;;;;;;5072138;28;20065;-73
2023/02/12 02:15:28;;;;;;;15.43;10.63;;;6.40;99.90;;;;;;5090479;28;20035;-73
2023/02/12 02:18:01;;;;;;;13.93;9.00;;;6.50;99.90;;;;;;5072648;28;20267;-74
2023/02/12 02:20:46;;;;;;;16.58;10.95;;;6.40;99.90;;;;;;5069076;28;20042;-73
2023/02/12 02:23:50;;;;;;;17.52;10.60;;;6.40;99.90;;;;;;5091559;28;20045;-75
2023/02/12 02:26:35;;;;;;;14.60;10.68;;;6.40;99.90;;;;;;5090391;28;20040;-75
2023/02/12 02:29:31;;;;;;;13.35;10.32;;;6.40;99.90;;;;;;5089665;28;20406;-73
2023/02/12 02:32:23;;;;;;;15.32;10.27;;;6.40;99.90;;;;;;5069671;28;20031;-73
2023/02/12 02:34:59;;;;;;;15.10;10.07;;;6.40;99.90;;;;;;5091010;28;20498;-74
2023/02/12 02:37:38;;;;;;;17.35;10.80;;;6.40;99.90;;;;;;5071394;28;20035;-74
2023/02/12 02:40:18;;;;;;;15.27;10.88;;;6.30;99.90;;;;;;5070898;27;20510;-73
2023/02/12 02:43:06;;;;;;;17.67;11.15;;;6.30;99.90;;;;;;5090898;27;20035;-73
2023/02/12 02:45:38;;;;;;;15.35;9.98;;;6.30;99.90;;;;;;5111484;27;20044;-73
2023/02/12 02:48:14;;;;;;;;;;;6.20;99.90;;;;;;5062971;28;20038;-73
2023/02/12 02:50:45;;;;;;;13.88;8.75;;;6.20;99.90;;;;;;5084375;27;19918;-73
2023/02/12 02:53:17;;;;;;;15.77;10.30;;;6.10;99.90;;;;;;5114807;27;20072;-76
2023/02/12 02:55:50;;;;;;;17.83;11.38;;;6.00;99.90;;;;;;5110412;27;20039;-73
2023/02/12 02:58:22;;;;;;;16.40;10.88;;;5.90;99.90;;;;;;5094145;28;20020;-73
2023/02/12 03:01:00;;;;;;;17.38;11.25;;;5.80;99.90;;;;;;5087447;27;20796;-73
2023/02/12 03:03:27;;;;;;;18.73;12.48;;;5.80;99.90;;;;;;5111559;27;20421;-76
2023/02/12 03:05:59;;;;;;;18.38;12.10;;;5.70;99.90;;;;;;5078608;27;20026;-74
2023/02/12 03:08:33;;;;;;;20.58;12.85;;;5.70;99.90;;;;;;5095722;27;20390;-74
2023/02/12 03:11:08;;;;;;;18.08;11.63;;;5.70;99.90;;;;;;5087036;28;20490;-73
2023/02/12 03:13:50;;;;;;;18.83;12.77;;;5.70;99.90;;;;;;5093491;28;20035;-73
2023/02/12 03:16:22;;;;;;;20.73;11.85;;;5.60;99.90;;;;;;5095174;28;20047;-74
2023/02/12 03:19:15;;;;;;;18.48;11.68;;;5.60;99.90;;;;;;5098172;27;20027;-73
2023/02/12 03:21:46;;;;;;;21.15;12.63;;;5.60;99.90;;;;;;5094914;27;20036;-73
2023/02/12 03:24:22;;;;;;;21.80;12.82;;;5.60;99.90;;;;;;5077801;27;20054;-73
2023/02/12 03:26:58;;;;;;;17.88;11.98;;;5.60;99.90;;;;;;5076483;28;20520;-73
2023/02/12 03:29:25;;;;;;;17.73;11.93;;;5.60;99.90;;;;;;5110155;27;20047;-73
2023/02/12 03:32:04;;;;;;;20.77;13.23;;;5.60;99.90;;;;;;5068528;28;20032;-72
2023/02/12 03:35:07;;;;;;;21.35;13.15;;;5.70;99.90;;;;;;5094829;28;20471;-72
2023/02/12 03:38:02;;;;;;;20.48;13.05;;;5.70;99.90;;;;;;5090666;27;20378;-73
2023/02/12 03:40:39;;;;;;;16.75;11.68;;;5.70;99.90;;;;;;5079782;27;20055;-73
2023/02/12 03:43:14;;;;;;;19.73;12.57;;;5.70;99.90;;;;;;5074090;27;20486;-72
2023/02/12 03:45:52;;;;;;;18.40;12.13;;;5.80;99.90;;;;;;5100936;27;20497;-72
2023/02/12 03:48:50;;;;;;;22.35;12.90;;;5.80;99.90;;;;;;5109928;27;20036;-72
2023/02/12 03:51:25;;;;;;;18.48;12.18;;;5.80;99.90;;;;;;5091236;27;20537;-72
2023/02/12 03:53:52;;;;;;;17.02;11.48;;;5.80;99.90;;;;;;5092627;27;20031;-73
2023/02/12 03:56:24;;;;;;;21.25;13.00;;;5.80;99.90;;;;;;5090893;27;20046;-73
2023/02/12 03:58:50;;;;;;;18.33;11.98;;;5.80;99.90;;;;;;5073394;27;20391;-73
2023/02/12 04:01:17;;;;;;;20.60;13.27;;;5.90;99.90;;;;;;5085919;27;20042;-75
2023/02/12 04:03:43;;;;;;;22.75;14.07;;;5.90;99.90;;;;;;5111178;27;20031;-73
2023/02/12 04:06:25;;;;;;;22.02;13.82;;;5.90;99.90;;;;;;5093149;27;20046;-73
2023/02/12 04:08:53;;;;;;;22.77;14.13;;;5.90;99.90;;;;;;5109362;27;20031;-73
2023/02/12 04:11:57;;;;;;;20.73;12.90;;;6.00;99.90;;;;;;5085245;27;20050;-73
2023/02/12 04:14:55;;;;;;;24.40;15.13;;;6.00;99.90;;;;;;5074779;27;20051;-74
2023/02/12 04:17:29;;;;;;;21.33;12.40;;;6.10;99.90;;;;;;5112117;27;20031;-73
2023/02/12 04:20:09;;;;;;;21.10;12.93;;;6.10;99.90;;;;;;5103582;27;20728;-76
2023/02/12 04:23:08;;;;;;;22.33;13.65;;;6.20;99.90;;;;;;5106875;27;20043;-74
2023/02/12 04:26:03;;;;;;;22.05;13.18;;;6.20;99.90;;;;;;5090470;28;20031;-73
2023/02/12 04:29:07;;;;;;;22.50;13.63;;;6.30;99.90;;;;;;5074097;27;20044;-73
2023/02/12 04:31:56;;;;;;;21.83;14.32;;;6.30;99.90;;;;;;5103920;27;20035;-73
2023/02/12 04:34:36;;;;;;;22.10;13.05;;;6.30;99.90;;;;;;5093129;28;20035;-73
2023/02/12 04:37:18;;;;;;;23.17;14.82;;;6.30;99.90;;;;;;5056728;28;20031;-75
2023/02/12 04:39:45;;;;;;;22.38;13.65;;;6.40;99.90;;;;;;5105758;27;21386;-75
2023/02/12 04:42:11;;;;;;;23.23;14.35;;;6.40;99.90;;;;;;5068996;27;20031;-73
2023/02/12 04:44:40;;;;;;;23.48;14.63;;;6.40;99.90;;;;;;5112059;27;20059;-73
2023/02/12 04:47:09;;;;;;;24.35;15.35;;;6.50;99.90;;;;;;5060761;27;20035;-73
2023/02/12 04:49:35;;;;;;;23.80;14.50;;;6.50;99.90;;;;;;5105710;27;20131;-72
2023/02/12 04:52:01;;;;;;;22.30;13.73;;;6.50;99.90;;;;;;5072082;27;20024;-76
2023/02/12 04:54:28;;;;;;;20.10;13.98;;;6.60;99.90;;;;;;5089075;28;20044;-73
2023/02/12 04:56:54;;;;;;;22.73;14.25;;;6.60;99.90;;;;;;5071752;27;20031;-73
2023/02/12 04:59:20;;;;;;;22.38;14.15;;;6.70;99.90;;;;;;5106114;27;20358;-74
2023/02/12 05:01:46;;;;;;;20.58;14.43;;;6.60;99.90;;;;;;5084933;28;20478;-72
2023/02/12 05:04:15;;;;;;;25.15;15.27;;;6.70;99.90;;;;;;5089870;28;20040;-73
2023/02/12 05:06:42;;;;;;;22.80;14.50;;;6.70;99.90;;;;;;5091021;28;20027;-73
2023/02/12 05:09:13;;;;;;;24.48;15.00;;;6.70;99.90;;;;;;5090065;28;20027;-73
2023/02/12 05:11:39;;;;;;;22.88;14.55;;;6.80;99.90;;;;;;5086860;27;20522;-73
2023/02/12 05:14:06;;;;;;;24.33;15.43;;;6.80;99.90;;;;;;5089882;28;20059;-73
2023/02/12 05:16:32;;;;;;;19.85;13.82;;;6.80;99.90;;;;;;5089062;27;20457;-75
2023/02/12 05:18:58;;;;;;;25.45;15.50;;;6.80;99.90;;;;;;5110554;27;20034;-73
2023/02/12 05:21:24;;;;;;;29.52;19.00;;;6.90;99.90;;;;;;5082576;28;20035;-73
2023/02/12 05:23:51;;;;;;;21.42;14.90;;;6.90;99.90;;;;;;5110488;27;20031;-73
2023/02/12 05:26:19;;;;;;;24.08;15.48;;;6.90;99.90;;;;;;5090772;27;20043;-73
2023/02/12 05:28:46;;;;;;;21.00;15.13;;;6.90;99.90;;;;;;5091420;27;20049;-74
2023/02/12 05:31:14;;;;;;;20.70;14.13;;;6.90;99.90;;;;;;5082607;27;20406;-72
2023/02/12 05:33:42;;;;;;;19.45;13.73;;;6.90;99.90;;;;;;5097819;27;20027;-73
2023/02/12 05:36:18;;;;;;;19.83;13.95;;;6.90;99.90;;;;;;5064013;28;20082;-75
2023/02/12 05:38:45;;;;;;;18.67;12.82;;;6.90;99.90;;;;;;5072422;27;20047;-73
2023/02/12 05:41:15;;;;;;;18.88;13.75;;;6.90;99.90;;;;;;5099505;27;20040;-73
2023/02/12 05:43:41;;;;;;;15.68;11.50;;;6.90;99.90;;;;;;5073872;28;20116;-73
2023/02/12 05:46:09;;;;;;;17.10;11.45;;;7.00;99.90;;;;;;5091537;28;20490;-75
2023/02/12 05:48:36;;;;;;;21.88;13.57;;;7.00;99.90;;;;;;5089464;28;20387;-73
2023/02/12 05:51:03;;;;;;;22.98;14.65;;;7.00;99.90;;;;;;5081604;28;20045;-73
2023/02/12 05:53:30;;;;;;;17.70;14.63;;;7.00;99.90;;;;;;5074011;28;20554;-75
2023/02/12 05:56:14;;;;;;;17.77;12.35;;;7.00;99.90;;;;;;5075679;28;20039;-74
2023/02/12 05:58:42;;;;;;;16.70;12.77;;;7.10;99.90;;;;;;5076569;28;20035;-73
2023/02/12 06:01:18;;;;;;;15.77;12.10;;;7.10;99.90;;;;;;5065702;28;20040;-73
2023/02/12 06:03:45;;;;;;;17.70;12.90;;;7.10;99.90;;;;;;5090987;28;20031;-73
2023/02/12 06:06:12;;;;;;;17.58;14.10;;;7.20;99.90;;;;;;5108679;28;20034;-73
2023/02/12 06:08:38;;;;;;;15.55;12.02;;;7.20;99.90;;;;;;5086973;28;20401;-73
2023/02/12 06:11:07;;;;;;;18.17;11.93;;;7.20;99.90;;;;;;5083697;28;20036;-73
2023/02/12 06:13:34;;;;;;;16.55;13.15;;;7.20;99.90;;;;;;5109729;27;20026;-75
2023/02/12 06:16:01;;;;;;;20.00;14.55;;;7.20;99.90;;;;;;5093888;27;20047;-72
2023/02/12 06:18:28;;;;;;;17.45;13.02;;;7.20;99.90;;;;;;5092731;27;20035;-73
2023/02/12 06:20:55;;;;;;;15.00;12.50;;;7.20;99.90;;;;;;5085202;27;20039;-73
2023/02/12 06:23:22;;;;;;;16.08;12.90;;;7.30;99.90;;;;;;5111510;27;20035;-75
2023/02/12 06:25:50;;;;;;;17.50;11.20;;;7.30;99.90;;;;;;5069491;28;20035;-73
2023/02/12 06:28:16;;;;;;;14.50;11.15;;;7.20;99.90;;;;;;5090413;27;20054;-72
2023/02/12 06:30:43;;;;;;;14.75;11.05;;;7.20;99.90;;;;;;5070154;28;20405;-72
2023/02/12 06:33:09;;;;;;;14.30;11.25;;;7.20;99.90;;;;;;5091346;27;20042;-74
2023/02/12 06:35:35;;;;;;;16.17;11.45;;;7.20;99.90;;;;;;5092046;27;20509;-73
2023/02/12 06:38:02;;;;;;;14.52;12.38;;;7.20;99.90;;;;;;5078329;27;20478;-74
2023/02/12 06:40:28;;;;;;;13.98;11.73;;;7.20;99.90;;;;;;5105085;27;20489;-75
2023/02/12 06:42:55;;;;;;;14.60;11.52;;;7.30;99.90;;;;;;5077934;27;20406;-73
2023/02/12 06:45:21;;;;;;;15.68;13.07;;;7.30;99.90;;;;;;5112825;27;20050;-71
2023/02/12 06:47:48;;;;;;;14.13;10.98;;;7.30;99.90;;;;;;5075317;27;20532;-74
2023/02/12 06:50:14;;;;;;;16.55;13.15;;;7.30;99.90;;;;;;5106097;27;20070;-73
2023/02/12 06:52:41;;;;;;;12.93;10.88;;;7.30;99.90;;;;;;5076096;27;20042;-74
2023/02/12 06:55:07;;;;;;;14.60;12.20;;;7.30;99.90;;;;;;5110977;27;20048;-72
2023/02/12 06:57:33;;;;;;;14.57;11.80;;;7.30;99.90;;;;;;5077504;27;20036;-75
2023/02/12 07:00:00;;;;;;;14.00;10.77;;;7.40;99.90;;;;;;5091354;27;20046;-73
2023/02/12 07:02:26;;;;;;;14.50;10.65;;;7.40;99.90;;;;;;5113824;27;20032;-73
2023/02/12 07:04:52;;;;;;;13.73;10.95;;;7.40;99.90;;;;;;5084721;27;20035;-73
2023/02/12 07:07:19;;;;;;;15.23;11.75;;;7.40;99.90;;;;;;5110988;27;20024;-75
2023/02/12 07:09:45;;;;;;;12.73;9.80;;;7.40;99.90;;;;;;5095263;27;20039;-73
2023/02/12 07:12:11;;;;;;;13.40;10.13;;;7.40;99.90;;;;;;5092224;28;20035;-74
2023/02/12 07:14:37;;;;;;;13.30;11.00;;;7.40;99.90;;;;;;5094328;27;20036;-73
2023/02/12 07:17:04;;;;;;;12.07;9.80;;;7.50;99.90;;;;;;5113584;27;20043;-73
2023/02/12 07:19:30;;;;;;;17.55;13.20;;;7.50;99.90;;;;;;5094454;27;20042;-73
2023/02/12 07:21:56;;;;;;;16.27;13.50;;;7.50;99.90;;;;;;5088088;27;20023;-74
2023/02/12 07:24:23;;;;;;;16.95;13.95;;;7.50;99.90;;;;;;5093189;28;20036;-75
2023/02/12 07:26:49;;;;;;;16.42;12.10;;;7.50;99.90;;;;;;5111107;27;20031;-74
2023/02/12 07:29:16;;;;;;;17.33;13.05;;;7.50;99.90;;;;;;5109987;27;20040;-72
2023/02/12 07:31:42;;;;;;;15.75;12.23;;;7.60;99.90;;;;;;5109547;27;20050;-72
2023/02/12 07:34:09;;;;;;;14.77;11.90;;;7.50;99.90;;;;;;5090460;27;20367;-73
2023/02/12 07:36:36;;;;;;;14.02;11.80;;;7.60;99.90;;;;;;5115142;27;20042;-74
2023/02/12 07:39:04;;;;;;;16.73;12.43;;;7.60;99.90;;;;;;5078878;27;20038;-73
2023/02/12 07:41:32;;;;;;;16.30;12.43;;;7.70;99.90;;;;;;5085547;27;20487;-73
2023/02/12 07:44:06;;;;;;;16.65;12.15;;;7.70;99.90;;;;;;5071095;27;20490;-73
2023/02/12 07:46:38;;;;;;;15.07;10.95;;;7.70;99.90;;;;;;5111204;27;20038;-73
2023/02/12 07:49:06;;;;;;;14.43;12.50;;;7.70;99.90;;;;;;5107228;27;20039;-75
2023/02/12 07:51:35;;;;;;;17.00;12.18;;;7.70;99.90;;;;;;5083674;28;20474;-73
2023/02/12 07:54:02;;;;;;;15.15;12.13;;;7.70;99.90;;;;;;5092790;27;20481;-73
2023/02/12 07:56:32;;;;;;;17.88;13.77;;;7.80;99.90;;;;;;5090974;27;20358;-73
2023/02/12 07:59:04;;;;;;;20.52;15.02;;;7.80;99.90;;;;;;5109961;27;20024;-73
2023/02/12 08:01:39;;;;;;;16.87;13.20;;;7.90;99.90;;;;;;5055616;27;20470;-73
2023/02/12 08:04:12;;;;;;;17.10;13.45;;;7.90;99.90;;;;;;5092904;28;20282;-74
2023/02/12 08:06:39;;;;;;;;;;;7.90;99.90;;;;;;5090896;27;20027;-73
2023/02/12 08:09:08;;;;;;;14.85;11.70;;;7.90;99.90;;;;;;5078425;27;19907;-76
2023/02/12 08:11:36;;;;;;;15.52;12.95;;;7.90;99.90;;;;;;5084947;28;20059;-73
2023/02/12 08:14:03;;;;;;;17.55;13.27;;;8.00;99.90;;;;;;5091383;27;20031;-76
2023/02/12 08:16:30;;;;;;;16.77;13.57;;;8.00;99.90;;;;;;5077546;28;20043;-75
2023/02/12 08:18:57;;;;;;;17.42;13.65;;;8.00;99.90;;;;;;5090393;27;20032;-74
2023/02/12 08:21:26;;;;;;;17.50;13.73;;;8.10;99.90;;;;;;5086125;28;20035;-75
2023/02/12 08:23:54;;;;;;;14.45;12.65;;;8.10;99.90;;;;;;5090337;28;20035;-73
2023/02/12 08:26:35;;;;;;;18.10;14.02;;;8.10;99.90;;;;;;5083346;27;20031;-73
2023/02/12 08:29:05;;;;;;;16.30;13.35;;;8.20;99.90;;;;;;5090999;27;20053;-74
2023/02/12 08:31:40;;;;;;;15.60;12.88;;;8.20;99.90;;;;;;5069254;27;20062;-73
2023/02/12 08:34:14;;;;;;;16.17;12.00;;;8.30;99.90;;;;;;5073730;27;20036;-72
2023/02/12 08:36:40;;;;;;;17.63;14.77;;;8.30;99.90;;;;;;5104102;27;20077;-73
2023/02/12 08:39:07;;;;;;;18.02;14.02;;;8.30;99.90;;;;;;5109024;27;20622;-75
2023/02/12 08:41:34;;;;;;;18.20;14.93;;;8.40;99.90;;;;;;5104964;27;20039;-73
2023/02/12 08:44:02;;;;;;;18.55;15.23;;;8.40;99.90;;;;;;5062096;27;20036;-73
2023/02/12 08:46:31;;;;;;;18.08;13.95;;;8.50;99.90;;;;;;5090117;27;20407;-73
2023/02/12 08:49:08;;;;;;;17.95;13.68;;;8.50;99.90;;;;;;5091174;28;20050;-73
2023/02/12 08:51:37;;;;;;;15.93;13.68;;;8.50;99.90;;;;;;5103829;27;20040;-75
2023/02/12 08:54:05;;;;;;;17.10;13.18;;;8.50;99.90;;;;;;5109819;27;20027;-73
2023/02/12 08:56:33;;;;;;;16.45;13.80;;;8.60;99.90;;;;;;5113350;27;20051;-73
2023/02/12 08:59:01;;;;;;;27.60;14.23;;;8.60;99.90;;;;;;5099864;27;20031;-73
2023/02/12 09:01:29;;;;;;;18.23;14.48;;;8.60;99.90;;;;;;5073630;27;20043;-73
2023/02/12 09:03:56;;;;;;;17.65;14.27;;;8.60;99.90;;;;;;5099997;27;20054;-76
2023/02/12 09:06:24;;;;;;;17.30;14.13;;;8.60;99.90;;;;;;5079199;27;20505;-74
2023/02/12 09:08:51;;;;;;;19.40;15.20;;;8.60;99.90;;;;;;5111133;27;20043;-74
2023/02/12 09:11:25;;;;;;;20.58;15.13;;;8.70;99.90;;;;;;5068784;27;20046;-73
2023/02/12 09:13:52;;;;;;;19.65;15.40;;;8.70;99.90;;;;;;5091882;28;20064;-74
2023/02/12 09:16:18;;;;;;;19.95;15.35;;;8.80;99.90;;;;;;5079854;27;20038;-73
2023/02/12 09:18:44;;;;;;;17.70;14.52;;;8.80;99.90;;;;;;5090792;28;20040;-73
2023/02/12 09:21:14;;;;;;;15.88;13.73;;;8.80;99.90;;;;;;5098481;27;20035;-74
2023/02/12 09:23:42;;;;;;;17.23;14.43;;;8.90;99.90;;;;;;5091025;28;20032;-74
2023/02/12 09:26:11;;;;;;;18.33;14.73;;;9.00;99.90;;;;;;5110751;27;20498;-73
2023/02/12 09:28:38;;;;;;;19.40;15.88;;;9.00;99.90;;;;;;5072776;28;20031;-73
2023/02/12 09:31:05;;;;;;;20.20;16.30;;;9.00;99.90;;;;;;5098562;27;20043;-74
2023/02/12 09:33:32;;;;;;;21.63;18.38;;;9.00;99.90;;;;;;5089699;27;20912;-74
2023/02/12 09:36:03;;;;;;;24.08;18.35;;;9.10;99.90;;;;;;5112985;27;20086;-74
2023/02/12 09:38:29;;;;;;;22.02;16.73;;;9.10;99.90;;;;;;5108885;27;20035;-74
2023/02/12 09:41:08;;;;;;;22.67;17.83;;;9.10;99.90;;;;;;5098724;27;20027;-74
2023/02/12 09:44:15;;;;;;;20.98;17.00;;;9.10;99.90;;;;;;5090370;28;20035;-74
2023/02/12 09:47:00;;;;;;;21.88;16.85;;;9.20;99.90;;;;;;5076056;28;20335;-74
2023/02/12 09:49:42;;;;;;;22.80;17.50;;;9.20;99.90;;;;;;5088986;28;20036;-76
2023/02/12 09:52:19;;;;;;;23.60;18.80;;;9.20;99.90;;;;;;5072459;28;20035;-74
2023/02/12 09:54:46;;;;;;;25.98;20.20;;;9.20;99.90;;;;;;5073768;28;20050;-74
2023/02/12 09:57:23;;;;;;;26.42;19.65;;;9.20;99.90;;;;;;5093173;27;20067;-75
2023/02/12 10:00:15;;;;;;;24.20;19.25;;;9.20;99.90;;;;;;5086579;27;20035;-76
2023/02/12 10:02:41;;;;;;;23.45;17.73;;;9.20;99.90;;;;;;5106475;28;20047;-76
2023/02/12 10:05:17;;;;;;;23.55;17.63;;;9.20;99.90;;;;;;5089516;28;20031;-74
2023/02/12 10:07:58;;;;;;;26.75;19.35;;;9.30;99.90;;;;;;5109978;28;20497;-74
2023/02/12 10:10:42;;;;;;;22.42;17.80;;;9.30;99.90;;;;;;5064522;28;20044;-74
2023/02/12 10:13:24;;;;;;;23.70;18.35;;;9.40;99.90;;;;;;5074873;28;20505;-75
2023/02/12 10:15:55;;;;;;;23.63;17.27;;;9.40;99.90;;;;;;5106908;28;20039;-73
2023/02/12 10:18:49;;;;;;;23.13;17.83;;;9.40;99.90;;;;;;5090591;28;20038;-73
2023/02/12 10:21:26;;;;;;;25.20;18.90;;;9.40;99.90;;;;;;5079483;28;20043;-74
2023/02/12 10:24:12;;;;;;;29.42;19.95;;;9.40;99.90;;;;;;5109861;28;20482;-74
2023/02/12 10:26:48;;;;;;;24.38;19.17;;;9.40;99.90;;;;;;5072792;28;20038;-73
2023/02/12 10:29:20;;;;;;;21.60;17.05;;;9.40;99.90;;;;;;5086902;28;20476;-73
2023/02/12 10:31:54;;;;;;;24.13;18.45;;;9.40;99.90;;;;;;5074527;28;20035;-74
2023/02/12 10:34:29;;;;;;;26.95;20.27;;;9.50;99.90;;;;;;5110831;28;20031;-76
2023/02/12 10:37:02;;;;;;;24.75;19.85;;;9.50;99.90;;;;;;5091531;28;20043;-74
2023/02/12 10:39:34;;;;;;;25.77;19.90;;;9.50;99.90;;;;;;5088797;28;21241;-77
2023/02/12 10:42:02;;;;;;;27.77;21.05;;;9.50;99.90;;;;;;5086011;28;20039;-75
2023/02/12 10:44:28;;;;;;;28.58;21.98;;;9.50;99.90;;;;;;5090870;28;20063;-74
2023/02/12 10:46:55;;;;;;;27.83;21.83;;;9.60;99.90;;;;;;5092040;28;20040;-74
2023/02/12 10:49:21;;;;;;;30.08;23.33;;;9.60;99.90;;;;;;5089440;28;20036;-74
2023/02/12 10:51:58;;;;;;;28.08;21.98;;;9.70;99.90;;;;;;5085884;28;20023;-74
2023/02/12 10:54:45;;;;;;;22.60;18.60;;;9.70;99.90;;;;;;5091868;28;20032;-73
2023/02/12 10:57:25;;;;;;;23.33;19.10;;;9.70;99.90;;;;;;5071949;28;20058;-74
2023/02/12 10:59:56;;;;;;;23.30;20.42;;;9.70;99.90;;;;;;5086985;27;20035;-76
2023/02/12 11:02:29;;;;;;;29.70;22.13;;;9.70;99.90;;;;;;5089730;28;20039;-73
2023/02/12 11:04:58;;;;;;;30.48;23.55;;;9.70;99.90;;;;;;5081583;28;20032;-74
2023/02/12 11:07:25;;;;;;;27.15;21.17;;;9.70;99.90;;;;;;5110382;27;20028;-73
2023/02/12 11:09:54;;;;;;;29.67;20.13;;;9.70;99.90;;;;;;5086982;27;20036;-76
2023/02/12 11:12:39;;;;;;;23.40;17.33;;;9.70;99.90;;;;;;5110455;27;20039;-73
2023/02/12 11:15:16;;;;;;;21.63;17.23;;;9.70;99.90;;;;;;5059993;28;20518;-73
2023/02/12 11:18:03;;;;;;;23.23;17.80;;;9.70;99.90;;;;;;5110951;27;20039;-74
2023/02/12 11:20:47;;;;;;;20.83;16.08;;;9.70;99.90;;;;;;5105692;27;20042;-74
2023/02/12 11:23:31;;;;;;;19.48;15.25;;;9.80;99.90;;;;;;5077039;27;20054;-74
2023/02/12 11:26:17;;;;;;;19.35;15.15;;;9.80;99.90;;;;;;5115241;27;20051;-75
2023/02/12 11:28:56;;;;;;;20.42;16.33;;;9.80;99.90;;;;;;5091647;27;20071;-76
2023/02/12 11:31:25;;;;;;;26.40;16.98;;;9.90;99.90;;;;;;5085782;27;20031;-74
2023/02/12 11:34:12;;;;;;;22.00;17.17;;;9.90;99.90;;;;;;5093415;27;20406;-74
2023/02/12 11:36:48;;;;;;;20.70;14.75;;;9.90;99.90;;;;;;5093684;28;20398;-73
2023/02/12 11:39:28;;;;;;;20.83;14.90;;;9.90;99.90;;;;;;5059321;27;20048;-74
2023/02/12 11:41:58;;;;;;;21.98;16.88;;;9.90;99.90;;;;;;5087290;27;20035;-75
2023/02/12 11:44:26;;;;;;;21.10;15.57;;;9.90;99.90;;;;;;5060497;27;20413;-75
2023/02/12 11:47:01;;;;;;;17.90;13.73;;;9.90;99.90;;;;;;5094910;27;20042;-76
2023/02/12 11:49:33;;;;;;;21.77;15.95;;;9.90;99.90;;;;;;5060452;27;21381;-75
2023/02/12 11:52:01;;;;;;;;;;;9.90;99.90;;;;;;5070959;27;20294;-74
2023/02/12 11:54:31;;;;;;;17.13;13.07;;;9.90;99.90;;;;;;5114005;27;19907;-74
2023/02/12 11:56:57;;;;;;;20.52;14.63;;;9.90;99.90;;;;;;5078372;27;20510;-74
2023/02/12 11:59:35;;;;;;;17.27;13.82;;;10.00;99.90;;;;;;5075221;27;20039;-74
2023/02/12 12:02:25;;;;;;;22.17;17.08;;;10.00;99.90;;;;;;5089392;27;20027;-75
2023/02/12 12:04:55;;;;;;;28.00;19.10;;;10.10;99.90;;;;;;5095751;27;20023;-74
2023/02/12 12:07:30;;;;;;;24.63;18.08;;;10.20;99.90;;;;;;5098880;28;20039;-74
2023/02/12 12:10:26;;;;;;;24.10;17.15;;;10.20;99.90;;;;;;5086188;27;20520;-75
2023/02/12 12:12:57;;;;;;;20.95;15.38;;;10.30;99.90;;;;;;5110590;27;20047;-75
2023/02/12 12:21:15;;;;;;;30.15;21.27;;;10.50;99.90;;;;;;5070583;27;20035;-73
2023/02/12 12:24:05;;;;;;;27.45;19.70;;;10.50;99.90;;;;;;5104610;27;20046;-74
2023/02/12 12:26:33;;;;;;;22.88;17.75;;;10.60;99.90;;;;;;5102112;27;20054;-75
2023/02/12 12:29:27;;;;;;;22.27;16.88;;;10.60;99.90;;;;;;5076468;27;20042;-74
2023/02/12 12:31:59;;;;;;;19.58;14.82;;;10.70;99.90;;;;;;5083402;28;20042;-75
2023/02/12 12:34:27;;;;;;;20.73;15.07;;;10.80;99.90;;;;;;5093849;27;20031;-75
2023/02/12 12:37:21;;;;;;;20.55;15.60;;;10.80;99.90;;;;;;5077637;28;20524;-75
2023/02/12 12:40:03;;;;;;;18.60;13.27;;;10.80;99.90;;;;;;5104726;27;20036;-77
2023/02/12 12:43:11;;;;;;;20.02;15.18;;;10.80;99.90;;;;;;5106299;27;20835;-73
2023/02/12 12:46:02;;;;;;;19.15;13.55;;;10.80;99.90;;;;;;5054775;28;20059;-75
2023/02/12 12:48:41;;;;;;;23.13;15.95;;;10.90;99.90;;;;;;5113083;27;20023;-74
2023/02/12 12:51:28;;;;;;;17.63;13.38;;;10.90;99.90;;;;;;5102260;27;20032;-74
2023/02/12 12:53:57;;;;;;;18.38;13.98;;;10.80;99.90;;;;;;5089450;27;20035;-74
2023/02/12 12:57:02;;;;;;;17.05;13.45;;;10.80;99.90;;;;;;5090783;28;20031;-74
2023/02/12 13:00:13;;;;;;;18.02;13.60;;;10.80;99.90;;;;;;5106719;27;20035;-76
2023/02/12 13:03:08;;;;;;;18.83;14.57;;;10.80;99.90;;;;;;5005477;28;20045;-74
2023/02/12 13:05:55;;;;;;;17.42;13.07;;;10.80;99.90;;;;;;5097791;27;20043;-74
2023/02/12 13:08:54;;;;;;;21.52;16.17;;;10.90;99.90;;;;;;5092769;27;20541;-73
2023/02/12 13:11:49;;;;;;;15.38;12.05;;;10.80;99.90;;;;;;5065035;28;20047;-73
2023/02/12 13:14:44;;;;;;;15.75;11.88;;;10.80;99.90;;;;;;5080771;27;20054;-76
2023/02/12 13:17:26;;;;;;;15.73;12.27;;;10.80;99.90;;;;;;5091996;27;20043;-74